createdAt,value
2022-08-19T00:00:57.098Z,100
2022-08-19T00:01:57.168Z,100
2022-08-19T00:02:57.116Z,100
2022-08-19T00:03:57.099Z,100
2022-08-19T00:04:57.109Z,100
2022-08-19T00:05:57.148Z,100
2022-08-19T00:06:57.273Z,100
2022-08-19T00:07:57.712Z,100
2022-08-19T00:08:57.988Z,100
2022-08-19T00:09:58.912Z,100
2022-08-19T00:10:57.634Z,100
2022-08-19T00:11:58.109Z,100
2022-08-19T00:12:58.418Z,100
2022-08-19T00:13:58.747Z,100
2022-08-19T00:14:57.005Z,100
2022-08-19T00:15:57.427Z,100
2022-08-19T00:16:57.629Z,100
2022-08-19T00:17:57.105Z,100
2022-08-19T00:18:57.115Z,100
2022-08-19T00:19:57.107Z,100
2022-08-19T00:20:57.090Z,100
2022-08-19T00:21:57.104Z,100
2022-08-19T00:22:57.106Z,100
2022-08-19T00:23:57.138Z,100
2022-08-19T00:24:58.114Z,100
2022-08-19T00:25:57.116Z,100
2022-08-19T00:26:57.097Z,100
2022-08-19T00:27:57.101Z,100
2022-08-19T00:28:57.097Z,100
2022-08-19T00:29:57.112Z,100
2022-08-19T00:30:57.098Z,100
2022-08-19T00:31:57.082Z,100
2022-08-19T00:32:57.109Z,100
2022-08-19T00:33:57.236Z,100
2022-08-19T00:34:57.102Z,100
2022-08-19T00:35:58.184Z,100
2022-08-19T00:36:57.473Z,100
2022-08-19T00:37:57.345Z,100
2022-08-19T00:38:57.543Z,100
2022-08-19T00:39:57.440Z,100
2022-08-19T00:40:57.607Z,100
2022-08-19T00:41:57.352Z,100
2022-08-19T00:42:57.108Z,100
2022-08-19T00:43:57.458Z,100
2022-08-19T00:44:57.846Z,100
2022-08-19T00:45:57.880Z,100
2022-08-19T00:47:01.008Z,100
2022-08-19T00:47:58.027Z,100
2022-08-19T00:48:57.893Z,100
2022-08-19T00:49:57.177Z,100
2022-08-19T00:50:57.439Z,100
2022-08-19T00:51:57.348Z,100
2022-08-19T00:52:57.668Z,100
2022-08-19T00:53:57.326Z,100
2022-08-19T00:54:57.544Z,100
2022-08-19T00:55:57.316Z,100
2022-08-19T00:56:57.593Z,100
2022-08-19T00:57:57.277Z,100
2022-08-19T00:58:57.221Z,100
2022-08-19T01:00:03.791Z,100
2022-08-19T01:00:57.174Z,100
2022-08-19T01:01:57.123Z,100
2022-08-19T01:02:57.388Z,100
2022-08-19T01:04:00.509Z,100
2022-08-19T01:04:57.322Z,100
2022-08-19T01:05:57.405Z,100
2022-08-19T01:06:57.109Z,100
2022-08-19T01:07:57.273Z,100
2022-08-19T01:08:57.493Z,100
2022-08-19T01:09:57.108Z,100
2022-08-19T01:10:57.102Z,100
2022-08-19T01:11:57.113Z,100
2022-08-19T01:12:57.085Z,100
2022-08-19T01:13:57.193Z,100
2022-08-19T01:14:57.096Z,100
2022-08-19T01:15:57.207Z,100
2022-08-19T01:16:57.085Z,100
2022-08-19T01:17:57.427Z,100
2022-08-19T01:18:57.147Z,100
2022-08-19T01:19:57.230Z,100
2022-08-19T01:20:57.380Z,100
2022-08-19T01:21:57.096Z,100
2022-08-19T01:22:57.104Z,100
2022-08-19T01:23:57.122Z,100
2022-08-19T01:24:58.109Z,100
2022-08-19T01:26:00.194Z,100
2022-08-19T01:26:57.125Z,100
2022-08-19T01:28:01.665Z,100
2022-08-19T01:29:01.224Z,100
2022-08-19T01:29:58.119Z,100
2022-08-19T01:30:57.096Z,100
2022-08-19T01:31:57.105Z,100
2022-08-19T01:32:57.112Z,100
2022-08-19T01:33:57.119Z,100
2022-08-19T01:34:57.109Z,100
2022-08-19T01:35:57.117Z,100
2022-08-19T01:36:57.131Z,100
2022-08-19T01:37:57.124Z,100
2022-08-19T01:38:57.241Z,100
2022-08-19T01:39:57.228Z,100
2022-08-19T01:40:57.100Z,100
2022-08-19T01:41:57.094Z,100
2022-08-19T01:42:57.088Z,100
2022-08-19T01:44:13.822Z,100
2022-08-19T01:44:57.107Z,100
2022-08-19T01:45:57.106Z,100
2022-08-19T01:46:57.097Z,100
2022-08-19T01:48:03.111Z,100
2022-08-19T01:48:57.224Z,100
2022-08-19T01:49:57.107Z,100
2022-08-19T01:50:57.103Z,100
2022-08-19T01:51:57.109Z,100
2022-08-19T01:53:06.434Z,100
2022-08-19T01:53:57.101Z,100
2022-08-19T01:54:57.094Z,100
2022-08-19T01:55:57.094Z,100
2022-08-19T01:56:57.099Z,100
2022-08-19T01:57:57.103Z,100
2022-08-19T01:58:57.132Z,100
2022-08-19T01:59:57.225Z,100
2022-08-19T02:00:57.105Z,100
2022-08-19T02:01:57.385Z,100
2022-08-19T02:02:57.119Z,100
2022-08-19T02:04:00.112Z,100
2022-08-19T02:04:57.098Z,100
2022-08-19T02:05:57.104Z,100
2022-08-19T02:06:57.100Z,100
2022-08-19T02:07:57.106Z,100
2022-08-19T02:09:00.099Z,100
2022-08-19T02:09:57.105Z,100
2022-08-19T02:10:57.124Z,100
2022-08-19T02:11:57.113Z,100
2022-08-19T02:12:58.108Z,100
2022-08-19T02:13:57.114Z,100
2022-08-19T02:14:57.091Z,100
2022-08-19T02:15:57.107Z,100
2022-08-19T02:16:57.100Z,100
2022-08-19T02:17:57.116Z,100
2022-08-19T02:18:57.100Z,100
2022-08-19T02:19:57.113Z,100
2022-08-19T02:20:57.208Z,100
2022-08-19T02:21:57.094Z,100
2022-08-19T02:22:57.336Z,100
2022-08-19T02:23:57.086Z,100
2022-08-19T02:24:57.117Z,100
2022-08-19T02:25:57.385Z,100
2022-08-19T02:26:57.113Z,100
2022-08-19T02:27:57.162Z,100
2022-08-19T02:28:57.398Z,100
2022-08-19T02:29:57.218Z,100
2022-08-19T02:30:57.456Z,100
2022-08-19T02:31:57.241Z,100
2022-08-19T02:32:57.817Z,100
2022-08-19T02:33:58.409Z,100
2022-08-19T02:34:57.561Z,100
2022-08-19T02:35:57.193Z,100
2022-08-19T02:37:03.165Z,100
2022-08-19T02:37:57.111Z,100
2022-08-19T02:38:57.112Z,100
2022-08-19T02:39:57.163Z,100
2022-08-19T02:40:57.113Z,100
2022-08-19T02:41:57.107Z,100
2022-08-19T02:42:57.101Z,100
2022-08-19T02:44:22.827Z,100
2022-08-19T02:44:57.136Z,100
2022-08-19T02:45:57.118Z,100
2022-08-19T02:46:57.106Z,100
2022-08-19T02:47:57.109Z,100
2022-08-19T02:48:57.109Z,100
2022-08-19T02:49:57.126Z,100
2022-08-19T02:50:57.121Z,100
2022-08-19T02:51:57.100Z,100
2022-08-19T02:52:57.109Z,100
2022-08-19T02:53:57.111Z,100
2022-08-19T02:54:57.183Z,100
2022-08-19T02:55:57.115Z,100
2022-08-19T02:56:57.184Z,100
2022-08-19T02:57:57.126Z,100
2022-08-19T02:58:57.103Z,100
2022-08-19T02:59:57.104Z,100
2022-08-19T03:00:57.159Z,100
2022-08-19T03:01:57.113Z,100
2022-08-19T03:02:57.113Z,100
2022-08-19T03:03:57.109Z,100
2022-08-19T03:04:57.120Z,100
2022-08-19T03:06:00.141Z,100
2022-08-19T03:07:11.014Z,100
2022-08-19T03:07:57.195Z,100
2022-08-19T03:08:57.140Z,100
2022-08-19T03:09:57.084Z,100
2022-08-19T03:10:57.091Z,100
2022-08-19T03:11:57.101Z,100
2022-08-19T03:12:57.104Z,100
2022-08-19T03:13:57.108Z,100
2022-08-19T03:14:57.105Z,100
2022-08-19T03:15:57.106Z,100
2022-08-19T03:16:57.102Z,100
2022-08-19T03:18:00.201Z,100
2022-08-19T03:18:57.110Z,100
2022-08-19T03:19:57.083Z,100
2022-08-19T03:20:57.109Z,100
2022-08-19T03:21:57.176Z,100
2022-08-19T03:22:58.019Z,100
2022-08-19T03:23:58.078Z,100
2022-08-19T03:24:56.703Z,100
2022-08-19T03:26:05.707Z,100
2022-08-19T03:26:57.291Z,100
2022-08-19T03:27:58.194Z,100
2022-08-19T03:29:00.131Z,100
2022-08-19T03:30:00.313Z,100
2022-08-19T03:30:58.206Z,100
2022-08-19T03:31:57.112Z,100
2022-08-19T03:33:00.285Z,100
2022-08-19T03:33:58.711Z,100
2022-08-19T03:34:57.081Z,100
2022-08-19T03:35:57.101Z,100
2022-08-19T03:36:57.109Z,100
2022-08-19T03:37:57.112Z,100
2022-08-19T03:39:01.156Z,100
2022-08-19T03:39:57.277Z,100
2022-08-19T03:40:57.207Z,100
2022-08-19T03:42:29.363Z,100
2022-08-19T03:42:58.076Z,100
2022-08-19T03:43:57.319Z,100
2022-08-19T03:44:57.149Z,100
2022-08-19T03:45:57.375Z,100
2022-08-19T03:46:57.236Z,100
2022-08-19T03:47:57.505Z,100
2022-08-19T03:48:57.191Z,100
2022-08-19T03:49:57.136Z,100
2022-08-19T03:50:57.680Z,100
2022-08-19T03:51:58.010Z,100
2022-08-19T03:52:57.240Z,100
2022-08-19T03:53:58.142Z,100
2022-08-19T03:54:57.253Z,100
2022-08-19T03:55:57.376Z,100
2022-08-19T03:56:57.119Z,100
2022-08-19T03:58:00.295Z,100
2022-08-19T03:58:57.303Z,100
2022-08-19T04:00:03.832Z,100
2022-08-19T04:00:57.145Z,100
2022-08-19T04:01:57.212Z,100
2022-08-19T04:03:01.419Z,100
2022-08-19T04:03:57.096Z,100
2022-08-19T04:04:57.383Z,100
2022-08-19T04:05:57.161Z,100
2022-08-19T04:06:57.208Z,100
2022-08-19T04:07:57.347Z,100
2022-08-19T04:08:57.167Z,100
2022-08-19T04:09:57.149Z,100
2022-08-19T04:10:57.201Z,100
2022-08-19T04:11:57.468Z,100
2022-08-19T04:12:57.685Z,100
2022-08-19T04:13:57.089Z,100
2022-08-19T04:14:57.263Z,100
2022-08-19T04:15:57.647Z,100
2022-08-19T04:16:57.111Z,100
2022-08-19T04:17:57.185Z,100
2022-08-19T04:18:57.455Z,100
2022-08-19T04:19:57.789Z,100
2022-08-19T04:20:57.084Z,100
2022-08-19T04:21:57.207Z,100
2022-08-19T04:22:57.254Z,100
2022-08-19T04:23:57.143Z,100
2022-08-19T04:25:00.254Z,100
2022-08-19T04:25:57.086Z,100
2022-08-19T04:26:57.332Z,100
2022-08-19T04:27:57.103Z,100
2022-08-19T04:28:57.195Z,100
2022-08-19T04:29:57.199Z,100
2022-08-19T04:30:57.217Z,100
2022-08-19T04:31:57.105Z,100
2022-08-19T04:32:57.164Z,100
2022-08-19T04:33:57.494Z,100
2022-08-19T04:35:16.519Z,100
2022-08-19T04:35:57.123Z,100
2022-08-19T04:36:57.103Z,100
2022-08-19T04:37:57.102Z,100
2022-08-19T04:38:57.098Z,100
2022-08-19T04:40:03.770Z,100
2022-08-19T04:40:57.107Z,100
2022-08-19T04:41:57.112Z,100
2022-08-19T04:42:57.112Z,100
2022-08-19T04:43:59.198Z,100
2022-08-19T04:44:57.147Z,100
2022-08-19T04:46:01.329Z,100
2022-08-19T04:46:57.099Z,100
2022-08-19T04:48:19.536Z,100
2022-08-19T04:49:00.111Z,100
2022-08-19T04:49:57.137Z,100
2022-08-19T04:50:57.104Z,100
2022-08-19T04:51:57.129Z,100
2022-08-19T04:52:57.573Z,100
2022-08-19T04:53:57.106Z,100
2022-08-19T04:54:57.160Z,100
2022-08-19T04:55:57.121Z,100
2022-08-19T04:56:57.110Z,100
2022-08-19T04:57:57.097Z,100
2022-08-19T04:58:57.091Z,100
2022-08-19T04:59:57.125Z,100
2022-08-19T05:00:57.105Z,100
2022-08-19T05:01:57.094Z,100
2022-08-19T05:02:57.108Z,100
2022-08-19T05:03:57.214Z,100
2022-08-19T05:04:57.166Z,100
2022-08-19T05:05:57.108Z,100
2022-08-19T05:07:03.118Z,100
2022-08-19T05:07:57.112Z,100
2022-08-19T05:08:57.112Z,100
2022-08-19T05:10:00.199Z,100
2022-08-19T05:10:57.105Z,100
2022-08-19T05:11:57.109Z,100
2022-08-19T05:12:57.089Z,100
2022-08-19T05:13:57.104Z,100
2022-08-19T05:14:57.186Z,100
2022-08-19T05:15:57.110Z,100
2022-08-19T05:17:25.922Z,100
2022-08-19T05:17:57.094Z,100
2022-08-19T05:18:57.094Z,100
2022-08-19T05:19:57.117Z,100
2022-08-19T05:20:57.107Z,100
2022-08-19T05:21:57.106Z,100
2022-08-19T05:22:57.104Z,100
2022-08-19T05:23:57.095Z,100
2022-08-19T05:25:12.541Z,100
2022-08-19T05:25:57.109Z,100
2022-08-19T05:26:57.113Z,100
2022-08-19T05:27:57.288Z,100
2022-08-19T05:28:57.098Z,100
2022-08-19T05:29:57.121Z,100
2022-08-19T05:30:57.105Z,100
2022-08-19T05:31:57.079Z,100
2022-08-19T05:32:57.099Z,100
2022-08-19T05:33:57.167Z,100
2022-08-19T05:34:57.121Z,100
2022-08-19T05:35:57.291Z,100
2022-08-19T05:36:57.101Z,100
2022-08-19T05:38:00.328Z,100
2022-08-19T05:38:57.082Z,100
2022-08-19T05:39:57.521Z,100
2022-08-19T05:40:57.157Z,100
2022-08-19T05:41:57.446Z,100
2022-08-19T05:42:57.227Z,100
2022-08-19T05:43:57.392Z,100
2022-08-19T05:44:57.934Z,100
2022-08-19T05:45:57.405Z,100
2022-08-19T05:46:57.244Z,100
2022-08-19T05:47:57.104Z,100
2022-08-19T05:48:57.108Z,100
2022-08-19T05:49:57.260Z,100
2022-08-19T05:50:57.091Z,100
2022-08-19T05:51:57.100Z,100
2022-08-19T05:52:57.205Z,100
2022-08-19T05:53:57.095Z,100
2022-08-19T05:54:57.199Z,100
2022-08-19T05:55:59.110Z,100
2022-08-19T05:56:57.109Z,100
2022-08-19T05:57:57.117Z,100
2022-08-19T05:59:00.108Z,100
2022-08-19T06:00:02.905Z,100
2022-08-19T06:00:57.319Z,100
2022-08-19T06:01:57.109Z,100
2022-08-19T06:02:57.139Z,100
2022-08-19T06:03:57.092Z,100
2022-08-19T06:04:57.128Z,100
2022-08-19T06:05:57.083Z,100
2022-08-19T06:06:57.096Z,100
2022-08-19T06:07:57.110Z,100
2022-08-19T06:08:57.096Z,100
2022-08-19T06:10:01.558Z,100
2022-08-19T06:10:57.209Z,100
2022-08-19T06:11:58.171Z,100
2022-08-19T06:12:57.104Z,100
2022-08-19T06:14:01.119Z,100
2022-08-19T06:15:03.125Z,100
2022-08-19T06:15:57.096Z,100
2022-08-19T06:16:57.098Z,100
2022-08-19T06:17:57.088Z,100
2022-08-19T06:18:57.102Z,100
2022-08-19T06:19:57.135Z,100
2022-08-19T06:20:58.245Z,100
2022-08-19T06:21:57.108Z,100
2022-08-19T06:22:57.109Z,100
2022-08-19T06:23:57.095Z,100
2022-08-19T06:24:57.129Z,100
2022-08-19T06:25:57.098Z,100
2022-08-19T06:27:03.102Z,100
2022-08-19T06:28:15.650Z,100
2022-08-19T06:28:57.115Z,99.96
2022-08-19T06:29:57.104Z,98.93
2022-08-19T06:30:57.080Z,98.91
2022-08-19T06:31:57.210Z,98.84
2022-08-19T06:32:57.161Z,97.71
2022-08-19T06:33:57.223Z,95.61
2022-08-19T06:34:57.769Z,95.76
2022-08-19T06:35:58.039Z,94.98
2022-08-19T06:36:57.561Z,94.43
2022-08-19T06:37:57.943Z,93.67
2022-08-19T06:38:57.073Z,94.48
2022-08-19T06:39:57.513Z,91.88
2022-08-19T06:40:57.823Z,93.16
2022-08-19T06:41:59.939Z,94.06
2022-08-19T06:42:57.761Z,94.8
2022-08-19T06:43:58.561Z,91.46
2022-08-19T06:44:57.098Z,91.51
2022-08-19T06:46:01.349Z,90.24
2022-08-19T06:46:57.104Z,88.29
2022-08-19T06:47:57.183Z,88.25
2022-08-19T06:48:57.129Z,89.18
2022-08-19T06:50:03.661Z,89.53
2022-08-19T06:50:57.091Z,90.68
2022-08-19T06:51:58.104Z,89.98
2022-08-19T06:52:57.116Z,88.47
2022-08-19T06:53:57.132Z,88.4
2022-08-19T06:55:01.278Z,88.31
2022-08-19T06:55:57.260Z,88.59
2022-08-19T06:56:57.101Z,89.61
2022-08-19T06:57:57.094Z,86.86
2022-08-19T06:58:57.116Z,86.8
2022-08-19T06:59:57.100Z,87.58
2022-08-19T07:00:57.086Z,86.37
2022-08-19T07:01:57.091Z,86.29
2022-08-19T07:03:06.269Z,85.31
2022-08-19T07:04:00.148Z,84.7
2022-08-19T07:04:58.115Z,83.86
2022-08-19T07:05:57.123Z,84.45
2022-08-19T07:06:57.220Z,83.65
2022-08-19T07:08:04.914Z,83.83
2022-08-19T07:08:58.235Z,83.8
2022-08-19T07:10:04.887Z,82.71
2022-08-19T07:10:57.099Z,83.67
2022-08-19T07:11:57.128Z,83.57
2022-08-19T07:12:57.092Z,83.08
2022-08-19T07:13:57.107Z,83.17
2022-08-19T07:14:57.122Z,83.7
2022-08-19T07:15:57.107Z,84.47
2022-08-19T07:16:57.383Z,85.24
2022-08-19T07:17:57.181Z,84.27
2022-08-19T07:18:57.264Z,84.77
2022-08-19T07:19:57.097Z,84.36
2022-08-19T07:20:57.113Z,85.55
2022-08-19T07:21:57.128Z,85.88
2022-08-19T07:22:57.097Z,86.24
2022-08-19T07:23:57.103Z,85.05
2022-08-19T07:24:57.099Z,84.78
2022-08-19T07:25:57.404Z,83.51
2022-08-19T07:26:57.096Z,81.32
2022-08-19T07:27:57.562Z,79.34
2022-08-19T07:28:57.465Z,77.61
2022-08-19T07:29:59.657Z,76.05
2022-08-19T07:30:57.081Z,72.84
2022-08-19T07:31:58.102Z,72.28
2022-08-19T07:32:57.404Z,71.78
2022-08-19T07:33:57.436Z,70.6
2022-08-19T07:34:58.275Z,70.47
2022-08-19T07:35:57.280Z,68.39
2022-08-19T07:36:57.599Z,64.15
2022-08-19T07:37:57.103Z,65.27
2022-08-19T07:38:57.313Z,62.22
2022-08-19T07:39:57.163Z,61.93
2022-08-19T07:40:57.097Z,60.07
2022-08-19T07:41:57.107Z,60.2
2022-08-19T07:42:57.392Z,61.87
2022-08-19T07:43:57.136Z,62.59
2022-08-19T07:44:57.105Z,62.18
2022-08-19T07:45:57.129Z,62.39
2022-08-19T07:46:57.113Z,62.89
2022-08-19T07:47:57.112Z,63.25
2022-08-19T07:48:57.104Z,63.59
2022-08-19T07:49:57.123Z,64.55
2022-08-19T07:50:57.148Z,63.74
2022-08-19T07:51:57.131Z,63.58
2022-08-19T07:52:57.105Z,63.41
2022-08-19T07:53:57.132Z,63
2022-08-19T07:54:57.100Z,63.07
2022-08-19T07:55:57.099Z,63.1
2022-08-19T07:56:57.093Z,62.4
2022-08-19T07:57:57.107Z,62.91
2022-08-19T07:59:57.102Z,60.9
2022-08-19T08:00:57.088Z,60.77
2022-08-19T08:01:57.231Z,60.87
2022-08-19T08:02:57.209Z,60.65
2022-08-19T08:03:57.118Z,59.83
2022-08-19T08:04:57.092Z,59.61
2022-08-19T08:05:57.118Z,60.54
2022-08-19T08:06:57.100Z,59.48
2022-08-19T08:07:57.088Z,59.63
2022-08-19T08:09:00.104Z,60.79
2022-08-19T08:09:58.108Z,61.3
2022-08-19T08:10:58.110Z,61.44
2022-08-19T08:11:57.689Z,61.27
2022-08-19T08:13:08.993Z,62.22
2022-08-19T08:14:04.451Z,63.18
2022-08-19T08:14:58.100Z,63.49
2022-08-19T08:15:58.095Z,63.19
2022-08-19T08:17:00.351Z,63.75
2022-08-19T08:17:57.099Z,62.84
2022-08-19T08:18:57.097Z,62.61
2022-08-19T08:19:57.094Z,62.82
2022-08-19T08:20:57.106Z,62.6
2022-08-19T08:21:57.103Z,62.07
2022-08-19T08:22:57.155Z,61.99
2022-08-19T08:24:57.097Z,60.56
2022-08-19T08:25:57.639Z,60.08
2022-08-19T08:27:00.126Z,59.32
2022-08-19T08:27:57.162Z,58.46
2022-08-19T08:28:57.122Z,59.24
2022-08-19T08:29:57.125Z,58.55
2022-08-19T08:30:57.122Z,59.07
2022-08-19T08:32:01.103Z,60.41
2022-08-19T08:32:57.210Z,61.01
2022-08-19T08:33:57.115Z,61.75
2022-08-19T08:34:57.291Z,62.61
2022-08-19T08:35:57.188Z,62.93
2022-08-19T08:36:57.096Z,61.75
2022-08-19T08:37:57.453Z,61.07
2022-08-19T08:39:57.244Z,60.07
2022-08-19T08:40:57.153Z,61.19
2022-08-19T08:41:57.411Z,62.7
2022-08-19T08:42:57.656Z,65.26
2022-08-19T08:43:57.347Z,65.72
2022-08-19T08:44:59.241Z,64.09
2022-08-19T08:45:57.867Z,63.99
2022-08-19T08:46:58.833Z,62.49
2022-08-19T08:47:57.361Z,60.81
2022-08-19T08:48:57.456Z,61.56
2022-08-19T08:49:57.276Z,62.25
2022-08-19T08:50:57.380Z,62.62
2022-08-19T08:52:00.268Z,63.19
2022-08-19T08:52:57.469Z,62.4
2022-08-19T08:53:58.373Z,64.12
2022-08-19T08:54:58.675Z,62.89
2022-08-19T08:55:57.413Z,61.92
2022-08-19T08:56:57.926Z,59
2022-08-19T08:57:57.395Z,58.93
2022-08-19T08:58:57.129Z,58.41
2022-08-19T08:59:57.291Z,57.39
2022-08-19T09:00:57.513Z,56.15
2022-08-19T09:01:57.225Z,56.04
2022-08-19T09:02:57.114Z,54.94
2022-08-19T09:04:02.941Z,55.46
2022-08-19T09:05:00.178Z,54.73
2022-08-19T09:05:57.139Z,54.32
2022-08-19T09:06:57.106Z,54.96
2022-08-19T09:07:57.369Z,54.81
2022-08-19T09:08:58.141Z,53.98
2022-08-19T09:09:58.096Z,53.7
2022-08-19T09:10:57.105Z,54.62
2022-08-19T09:11:57.101Z,53.43
2022-08-19T09:12:58.117Z,52.57
2022-08-19T09:13:57.114Z,52.65
2022-08-19T09:14:57.155Z,52.35
2022-08-19T09:15:57.120Z,54.02
2022-08-19T09:16:57.094Z,54.42
2022-08-19T09:17:57.081Z,54.84
2022-08-19T09:18:57.120Z,55.37
2022-08-19T09:19:57.093Z,52.33
2022-08-19T09:21:00.105Z,53.74
2022-08-19T09:21:58.106Z,55.71
2022-08-19T09:22:57.087Z,58.05
2022-08-19T09:23:57.139Z,60.24
2022-08-19T09:24:57.089Z,62.53
2022-08-19T09:25:57.131Z,64.31
2022-08-19T09:27:00.101Z,65.59
2022-08-19T09:28:05.541Z,65.91
2022-08-19T09:29:00.130Z,66.06
2022-08-19T09:29:57.104Z,64.34
2022-08-19T09:30:57.104Z,63.66
2022-08-19T09:31:57.103Z,64.12
2022-08-19T09:32:58.105Z,62.11
2022-08-19T09:33:57.128Z,59.6
2022-08-19T09:34:57.089Z,58.43
2022-08-19T09:35:57.131Z,55.58
2022-08-19T09:36:57.164Z,54.95
2022-08-19T09:38:00.264Z,55.11
2022-08-19T09:38:57.099Z,54.25
2022-08-19T09:39:57.123Z,52.98
2022-08-19T09:40:59.104Z,52.72
2022-08-19T09:42:00.113Z,53.76
2022-08-19T09:42:57.092Z,52.31
2022-08-19T09:43:57.109Z,54.04
2022-08-19T09:44:57.083Z,54.22
2022-08-19T09:45:57.143Z,54.1
2022-08-19T09:46:57.414Z,54.6
2022-08-19T09:47:57.856Z,56.74
2022-08-19T09:49:03.124Z,56.93
2022-08-19T09:50:00.817Z,57.35
2022-08-19T09:50:57.884Z,58.23
2022-08-19T09:51:57.103Z,59.02
2022-08-19T09:52:58.489Z,58.5
2022-08-19T09:53:57.467Z,59.95
2022-08-19T09:54:56.936Z,61.58
2022-08-19T09:55:57.273Z,59.32
2022-08-19T09:56:57.542Z,58.84
2022-08-19T09:57:57.833Z,55.82
2022-08-19T09:58:57.109Z,56.28
2022-08-19T09:59:57.115Z,53.63
2022-08-19T10:00:57.196Z,53.92
2022-08-19T10:02:03.779Z,53.16
2022-08-19T10:02:57.094Z,54.01
2022-08-19T10:03:57.124Z,53.43
2022-08-19T10:04:57.092Z,55.52
2022-08-19T10:05:57.102Z,54.42
2022-08-19T10:06:57.095Z,55.23
2022-08-19T10:07:58.111Z,55.94
2022-08-19T10:08:57.093Z,54.72
2022-08-19T10:09:58.119Z,55.1
2022-08-19T10:10:57.263Z,54.88
2022-08-19T10:11:57.128Z,54.32
2022-08-19T10:12:57.098Z,53.62
2022-08-19T10:13:57.095Z,53.6
2022-08-19T10:14:57.097Z,52.75
2022-08-19T10:15:57.122Z,53.62
2022-08-19T10:16:57.154Z,52.45
2022-08-19T10:17:57.125Z,51.94
2022-08-19T10:19:00.100Z,50.74
2022-08-19T10:19:58.112Z,50.72
2022-08-19T10:20:57.113Z,49.54
2022-08-19T10:22:01.132Z,48.88
2022-08-19T10:22:57.103Z,47.79
2022-08-19T10:23:57.104Z,46.46
2022-08-19T10:24:57.086Z,45.64
2022-08-19T10:25:57.102Z,45.58
2022-08-19T10:27:01.123Z,45.32
2022-08-19T10:27:58.103Z,45.09
2022-08-19T10:29:00.087Z,45.58
2022-08-19T10:30:00.132Z,45
2022-08-19T10:30:57.070Z,46.65
2022-08-19T10:32:03.361Z,45.66
2022-08-19T10:32:57.121Z,46.71
2022-08-19T10:33:57.316Z,46.88
2022-08-19T10:35:00.152Z,47.77
2022-08-19T10:35:59.328Z,45.86
2022-08-19T10:37:01.720Z,46.33
2022-08-19T10:38:03.480Z,46.86
2022-08-19T10:39:00.124Z,48.62
2022-08-19T10:39:57.206Z,49.53
2022-08-19T10:40:58.266Z,48.84
2022-08-19T10:41:57.102Z,49.85
2022-08-19T10:42:57.213Z,50.01
2022-08-19T10:43:57.308Z,49.21
2022-08-19T10:45:00.128Z,46.86
2022-08-19T10:45:57.283Z,44.84
2022-08-19T10:47:01.539Z,44.77
2022-08-19T10:47:57.083Z,44.59
2022-08-19T10:48:57.293Z,43
2022-08-19T10:49:57.461Z,43.31
2022-08-19T10:50:57.111Z,41.89
2022-08-19T10:51:57.344Z,43.39
2022-08-19T10:52:58.347Z,42.92
2022-08-19T10:53:57.460Z,42.73
2022-08-19T10:54:57.718Z,43.97
2022-08-19T10:55:57.095Z,44.26
2022-08-19T10:57:00.191Z,45.01
2022-08-19T10:58:03.321Z,45.01
2022-08-19T10:58:57.409Z,44.84
2022-08-19T10:59:57.091Z,44.24
2022-08-19T11:00:57.179Z,44.51
2022-08-19T11:01:58.123Z,44.52
2022-08-19T11:02:57.105Z,44.84
2022-08-19T11:03:57.137Z,43.36
2022-08-19T11:04:58.329Z,44.43
2022-08-19T11:05:57.098Z,43.18
2022-08-19T11:06:57.101Z,44.2
2022-08-19T11:07:57.078Z,44.41
2022-08-19T11:08:57.121Z,45.28
2022-08-19T11:09:57.107Z,44.25
2022-08-19T11:10:57.098Z,44.19
2022-08-19T11:11:57.112Z,44.23
2022-08-19T11:12:57.113Z,43.83
2022-08-19T11:13:57.138Z,43.37
2022-08-19T11:14:57.089Z,43.59
2022-08-19T11:15:57.102Z,43.82
2022-08-19T11:16:57.104Z,44.09
2022-08-19T11:17:57.097Z,44.27
2022-08-19T11:18:57.125Z,45.41
2022-08-19T11:19:57.112Z,45.44
2022-08-19T11:20:57.090Z,43.17
2022-08-19T11:22:01.112Z,43.14
2022-08-19T11:22:57.109Z,43.6
2022-08-19T11:23:57.146Z,43.02
2022-08-19T11:24:57.149Z,42.13
2022-08-19T11:25:57.175Z,42.36
2022-08-19T11:26:57.093Z,41.94
2022-08-19T11:27:57.151Z,40.22
2022-08-19T11:28:57.126Z,40.67
2022-08-19T11:29:57.092Z,39.58
2022-08-19T11:30:57.087Z,38.12
2022-08-19T11:31:57.092Z,39.3
2022-08-19T11:32:57.093Z,39.31
2022-08-19T11:33:57.199Z,40.94
2022-08-19T11:34:57.210Z,40.31
2022-08-19T11:35:57.087Z,40.94
2022-08-19T11:36:57.189Z,41.04
2022-08-19T11:37:57.113Z,41.12
2022-08-19T11:38:57.236Z,41.28
2022-08-19T11:39:57.189Z,43.06
2022-08-19T11:40:57.104Z,41.22
2022-08-19T11:41:57.146Z,41.8
2022-08-19T11:42:57.216Z,42.29
2022-08-19T11:43:57.157Z,42.03
2022-08-19T11:44:57.371Z,43.91
2022-08-19T11:45:57.183Z,44.66
2022-08-19T11:46:57.963Z,45.58
2022-08-19T11:47:57.445Z,45.96
2022-08-19T11:48:57.255Z,46.33
2022-08-19T11:49:57.424Z,46.75
2022-08-19T11:50:57.625Z,46.89
2022-08-19T11:51:57.662Z,46.82
2022-08-19T11:52:59.246Z,46.82
2022-08-19T11:53:58.202Z,46.64
2022-08-19T11:54:58.087Z,46.63
2022-08-19T11:55:57.128Z,47.35
2022-08-19T11:57:00.527Z,47.02
2022-08-19T11:57:57.608Z,48.25
2022-08-19T11:58:57.101Z,47.86
2022-08-19T11:59:57.143Z,47.09
2022-08-19T12:00:57.121Z,47.31
2022-08-19T12:01:57.135Z,46.73
2022-08-19T12:02:57.101Z,46.25
2022-08-19T12:03:57.342Z,46.41
2022-08-19T12:04:57.148Z,45.36
2022-08-19T12:05:57.243Z,45.28
2022-08-19T12:06:57.145Z,46.3
2022-08-19T12:07:57.331Z,45.04
2022-08-19T12:08:57.526Z,45.09
2022-08-19T12:09:57.394Z,44.79
2022-08-19T12:10:57.233Z,44.79
2022-08-19T12:11:57.571Z,43.14
2022-08-19T12:13:00.376Z,43.18
2022-08-19T12:13:57.111Z,42.6
2022-08-19T12:14:57.866Z,43.4
2022-08-19T12:15:57.401Z,44.4
2022-08-19T12:16:57.159Z,44.82
2022-08-19T12:17:57.198Z,45.04
2022-08-19T12:18:57.430Z,43.65
2022-08-19T12:19:57.178Z,44.16
2022-08-19T12:20:57.098Z,44.73
2022-08-19T12:21:57.102Z,45.64
2022-08-19T12:22:57.225Z,46.97
2022-08-19T12:23:58.132Z,47.44
2022-08-19T12:24:57.099Z,47.33
2022-08-19T12:25:57.110Z,46.88
2022-08-19T12:27:00.835Z,47.69
2022-08-19T12:27:58.380Z,47.61
2022-08-19T12:28:57.119Z,47.82
2022-08-19T12:29:57.187Z,48.14
2022-08-19T12:30:57.128Z,48.58
2022-08-19T12:31:57.337Z,48.5
2022-08-19T12:32:58.318Z,47.97
2022-08-19T12:33:57.130Z,47.9
2022-08-19T12:34:57.120Z,47.42
2022-08-19T12:35:57.121Z,47.75
2022-08-19T12:36:57.128Z,48.59
2022-08-19T12:38:00.391Z,48.34
2022-08-19T12:38:57.149Z,48.41
2022-08-19T12:39:57.360Z,48.66
2022-08-19T12:41:01.147Z,47.45
2022-08-19T12:41:57.221Z,47.97
2022-08-19T12:42:57.113Z,46.85
2022-08-19T12:43:57.142Z,46.13
2022-08-19T12:44:57.130Z,44.07
2022-08-19T12:45:58.126Z,41.67
2022-08-19T12:46:57.118Z,41.65
2022-08-19T12:47:57.347Z,42.19
2022-08-19T12:48:58.138Z,40.86
2022-08-19T12:49:57.141Z,40.97
2022-08-19T12:50:57.122Z,41.74
2022-08-19T12:51:57.254Z,39.81
2022-08-19T12:52:57.354Z,38.45
2022-08-19T12:53:57.160Z,39.22
2022-08-19T12:54:57.137Z,38.37
2022-08-19T12:55:57.124Z,37.35
2022-08-19T12:56:57.101Z,36.96
2022-08-19T12:57:57.136Z,36.38
2022-08-19T12:58:57.110Z,36.71
2022-08-19T12:59:57.121Z,36.85
2022-08-19T13:00:57.244Z,37.04
2022-08-19T13:01:57.131Z,38.31
2022-08-19T13:02:57.169Z,37.77
2022-08-19T13:03:57.133Z,38.8
2022-08-19T13:04:57.348Z,38.43
2022-08-19T13:05:57.141Z,37.86
2022-08-19T13:06:57.117Z,36.77
2022-08-19T13:07:57.097Z,37.1
2022-08-19T13:09:00.141Z,37.14
2022-08-19T13:10:00.186Z,36.45
2022-08-19T13:10:57.160Z,37.21
2022-08-19T13:11:57.141Z,36.67
2022-08-19T13:12:57.171Z,37.45
2022-08-19T13:13:57.162Z,38.72
2022-08-19T13:14:57.171Z,38.46
2022-08-19T13:15:57.147Z,37.18
2022-08-19T13:16:57.137Z,38.04
2022-08-19T13:17:57.491Z,36.37
2022-08-19T13:18:57.188Z,36.24
2022-08-19T13:19:57.151Z,37.86
2022-08-19T13:20:57.154Z,37.81
2022-08-19T13:22:01.166Z,37.61
2022-08-19T13:22:57.157Z,37.48